YQR weather

Regina International Airport
Regina, Saskatchewan, Canada

Public forecast

Using degrees Celsius for public forecast. Weather courtesy of forecast.io.

Current aviation weather report (METAR) for Regina International Airport

Retrieved 2019/10/20 21:00 UTC (3 minutes ago):

CYQR 202100Z 31013G21KT 15SM FEW040 FEW150 09/M01 A2983 RMK CU1AC1 CU TR AC TR SLP127

Aviation forecast (TAF) for Regina International Airport

Retrieved 2019/10/20 18:42 UTC (2 hours ago):

TAF CYQR 201739Z 2018/2118 31012KT P6SM FEW140 BECMG 2103/2105 VRB03KT FM210800 10005KT P6SM SKC RMK NXT FCST BY 210000Z